Avinger, Texas
Current Conditions -  °F | °C
As of 7:35 AM on Saturday 20 Dec 2014 (Local Time) from KOSA Reporting Station
Overcast Overcast  
Wind Chill: 45°   Ceiling: 300
Heat Index: 45°   Visibility: 3mi
Dew Point: 44°   Wind: 3mph
Humidity: 98%   Direction: 50°NE
Pressure: 30.26"   Gusts: NA
Location:  32.9°N, 94.56°W
Report Text: KOSA 201335Z AUTO 05003KT 3SM OVC003 07/07 A3026 RMK AO1 T00700067
Loading
Personal Weather Stations






























Interactive Weather Map New forecast layout! Learn more

10-Day Weather Forecast

Advertisements
Track Severe Weather on mobile